createdAt,value
2018-06-11T04:57:01.849Z,100
2018-06-11T04:57:21.994Z,100
2018-06-11T04:58:26.859Z,100
2018-06-11T04:58:47.031Z,100
2018-06-11T05:00:14.001Z,100
2018-06-11T05:00:34.187Z,100
2018-06-11T05:01:05.582Z,100
2018-06-11T05:01:44.396Z,100
2018-06-11T05:02:04.590Z,100
2018-06-11T05:02:24.761Z,100
2018-06-11T05:02:45.077Z,100
2018-06-11T05:03:05.271Z,100
2018-06-11T05:06:09.075Z,100
2018-06-11T05:06:47.583Z,100
2018-06-11T05:07:26.301Z,100
2018-06-11T05:20:09.799Z,100
2018-06-11T05:21:25.753Z,100
2018-06-11T05:23:08.939Z,100
2018-06-11T05:24:12.013Z,100
2018-06-11T05:25:29.414Z,100
2018-06-11T05:29:02.199Z,100
2018-06-11T05:29:40.949Z,100
2018-06-11T05:32:48.047Z,100
2018-06-11T05:33:27.376Z,100
2018-06-11T05:34:05.531Z,100
2018-06-11T05:34:25.735Z,100
2018-06-11T05:37:06.105Z,100
2018-06-11T05:38:04.224Z,100
2018-06-11T05:39:08.796Z,100
2018-06-11T05:42:54.622Z,100
2018-06-11T05:43:39.871Z,100
2018-06-11T06:11:52.417Z,100
2018-06-11T06:14:27.181Z,100
2018-06-11T06:42:29.608Z,100
2018-06-11T06:47:31.240Z,100
2018-06-11T06:48:40.794Z,100
2018-06-11T06:49:13.540Z,100
2018-06-11T06:49:51.744Z,100
2018-06-11T06:50:11.968Z,100
2018-06-11T06:50:32.209Z,100
2018-06-11T06:55:48.418Z,100
2018-06-11T06:56:33.356Z,100
2018-06-11T06:56:53.702Z,100
2018-06-11T06:57:29.997Z,100
2018-06-11T06:57:50.303Z,100
2018-06-11T06:58:10.747Z,100
2018-06-11T06:58:31.067Z,100
2018-06-11T06:58:51.484Z,100
2018-06-11T06:59:11.822Z,100
2018-06-11T06:59:32.169Z,100
2018-06-11T06:59:52.314Z,100
2018-06-11T07:00:12.733Z,100
2018-06-11T07:00:33.135Z,100
2018-06-11T07:00:53.602Z,100
2018-06-11T07:01:35.613Z,100
2018-06-11T07:02:14.364Z,100
2018-06-11T07:02:34.891Z,100
2018-06-11T07:02:56.178Z,100
2018-06-11T07:03:17.163Z,100
2018-06-11T07:03:37.202Z,100
2018-06-11T07:03:57.444Z,100
2018-06-11T07:04:17.539Z,100
2018-06-11T07:04:37.791Z,100
2018-06-11T07:04:58.086Z,100
2018-06-11T07:05:18.332Z,100
2018-06-11T07:05:39.918Z,100
2018-06-11T07:06:00.333Z,100
2018-06-11T07:06:20.578Z,100
2018-06-11T07:06:41.100Z,100
2018-06-11T07:07:01.524Z,100
2018-06-11T07:07:21.904Z,100
2018-06-11T07:07:42.317Z,100
2018-06-11T07:08:02.634Z,100
2018-06-11T07:08:22.884Z,100
2018-06-11T07:09:01.753Z,100
2018-06-11T07:09:22.328Z,100
2018-06-11T07:10:06.248Z,100
2018-06-11T07:10:26.729Z,100
2018-06-11T07:11:11.055Z,100
2018-06-11T07:11:31.406Z,100
2018-06-11T07:12:28.469Z,100
2018-06-11T07:12:49.099Z,100
2018-06-11T07:13:26.616Z,100
2018-06-11T07:14:18.229Z,100
2018-06-11T07:14:38.628Z,100
2018-06-11T07:14:58.977Z,100
2018-06-11T07:15:19.031Z,100
2018-06-11T07:15:40.933Z,100
2018-06-11T07:16:01.274Z,100
2018-06-11T07:16:21.683Z,100
2018-06-11T07:16:42.139Z,100
2018-06-11T07:17:02.505Z,100
2018-06-11T07:17:22.869Z,100
2018-06-11T07:17:42.946Z,100
2018-06-11T07:18:03.350Z,100
2018-06-11T07:18:23.509Z,100
2018-06-11T07:18:43.605Z,100
2018-06-11T07:19:03.687Z,100
2018-06-11T07:19:24.581Z,100
2018-06-11T07:19:44.995Z,100
2018-06-11T07:20:05.394Z,100
2018-06-11T07:20:26.024Z,100
2018-06-11T07:20:46.220Z,100
2018-06-11T07:21:06.540Z,100
2018-06-11T07:21:27.678Z,100
2018-06-11T07:21:48.070Z,100
2018-06-11T07:22:08.375Z,100
2018-06-11T07:22:28.550Z,100
2018-06-11T07:22:48.727Z,100
2018-06-11T07:23:08.940Z,100
2018-06-11T07:23:29.152Z,100
2018-06-11T07:23:50.067Z,100
2018-06-11T07:24:10.393Z,100
2018-06-11T07:24:30.550Z,100
2018-06-11T07:24:50.700Z,100
2018-06-11T07:25:10.890Z,100
2018-06-11T07:25:31.875Z,100
2018-06-11T07:25:52.097Z,100
2018-06-11T07:26:12.596Z,100
2018-06-11T07:26:33.051Z,100
2018-06-11T07:26:53.296Z,100
2018-06-11T07:27:14.668Z,100
2018-06-11T07:27:34.897Z,100
2018-06-11T07:27:55.141Z,100
2018-06-11T07:28:15.333Z,100
2018-06-11T07:28:35.382Z,100
2018-06-11T07:28:55.730Z,100
2018-06-11T07:29:15.952Z,100
2018-06-11T07:29:36.503Z,100
2018-06-11T07:29:56.914Z,100
2018-06-11T07:30:17.224Z,100
2018-06-11T07:30:37.286Z,100
2018-06-11T07:30:57.680Z,100
2018-06-11T07:31:17.972Z,100
2018-06-11T07:31:38.139Z,100
2018-06-11T07:31:58.593Z,100
2018-06-11T07:32:18.998Z,100
2018-06-11T07:32:39.097Z,99.5
2018-06-11T07:32:59.295Z,97.5
2018-06-11T07:33:19.460Z,97.6
2018-06-11T07:33:39.530Z,98.1
2018-06-11T07:33:59.849Z,98.2
2018-06-11T07:34:20.055Z,99.1
2018-06-11T07:34:40.359Z,99
2018-06-11T07:35:00.609Z,98.3
2018-06-11T07:35:21.581Z,98.7
2018-06-11T07:35:41.835Z,98.8
2018-06-11T07:36:03.102Z,99.5
2018-06-11T07:36:23.879Z,100
2018-06-11T07:36:45.174Z,100
2018-06-11T07:37:05.472Z,100
2018-06-11T07:37:25.802Z,99.8
2018-06-11T07:37:47.008Z,99.7
2018-06-11T07:38:07.451Z,99.9
2018-06-11T07:38:27.743Z,100
2018-06-11T07:38:48.066Z,99.8
2018-06-11T07:39:08.353Z,99.2
2018-06-11T07:39:28.707Z,98.7
2018-06-11T07:39:48.985Z,99.1
2018-06-11T07:40:09.585Z,100
2018-06-11T07:40:29.992Z,100
2018-06-11T07:40:51.126Z,97.6
2018-06-11T07:41:12.145Z,96.8
2018-06-11T07:41:32.174Z,97.8
2018-06-11T07:41:53.505Z,98.2
2018-06-11T07:42:13.912Z,99.4
2018-06-11T07:42:34.222Z,100
2018-06-11T07:42:54.192Z,100
2018-06-11T07:43:14.475Z,100
2018-06-11T07:43:34.517Z,100
2018-06-11T07:43:54.792Z,100
2018-06-11T07:44:14.730Z,100
2018-06-11T07:44:35.093Z,100
2018-06-11T07:44:55.442Z,100
2018-06-11T07:45:15.663Z,100
2018-06-11T07:45:35.816Z,100
2018-06-11T07:45:56.031Z,99.7
2018-06-11T07:46:16.228Z,98.6
2018-06-11T07:46:36.554Z,99.3
2018-06-11T07:46:56.857Z,100
2018-06-11T07:47:17.028Z,100
2018-06-11T07:47:37.236Z,100
2018-06-11T07:47:58.623Z,100
2018-06-11T07:48:18.988Z,100
2018-06-11T07:48:39.305Z,100
2018-06-11T07:48:59.607Z,100
2018-06-11T07:49:19.599Z,97.5
2018-06-11T07:49:39.727Z,96.2
2018-06-11T07:50:00.658Z,96.6
2018-06-11T07:50:20.971Z,96.7
2018-06-11T07:50:41.040Z,95.5
2018-06-11T07:51:01.338Z,94.8
2018-06-11T07:51:21.595Z,95.4
2018-06-11T07:51:41.900Z,96.1
2018-06-11T07:52:02.095Z,95.6
2018-06-11T07:52:22.266Z,94.7
2018-06-11T07:52:42.477Z,93.3
2018-06-11T07:53:02.742Z,93.2
2018-06-11T07:53:22.966Z,94.1
2018-06-11T07:53:43.483Z,95.1
2018-06-11T07:54:03.836Z,95.6
2018-06-11T07:54:24.229Z,96.8
2018-06-11T07:54:44.667Z,96.7
2018-06-11T07:55:05.005Z,96.8
2018-06-11T07:55:25.452Z,96.8
2018-06-11T07:55:45.760Z,96.1
2018-06-11T07:56:05.999Z,96.6
2018-06-11T07:56:26.312Z,95.8
2018-06-11T07:56:47.037Z,95.4
2018-06-11T07:57:07.226Z,95.7
2018-06-11T07:57:27.508Z,96.2
2018-06-11T07:57:47.769Z,95.8
2018-06-11T07:58:08.093Z,96.4
2018-06-11T07:58:28.188Z,95.9
2018-06-11T07:58:48.442Z,95.6
2018-06-11T07:59:08.702Z,96.5
2018-06-11T07:59:28.933Z,96.3
2018-06-11T07:59:49.212Z,96.4
2018-06-11T08:00:09.587Z,96.4
2018-06-11T08:00:29.773Z,95.8
2018-06-11T08:00:49.975Z,96.7
2018-06-11T08:01:10.322Z,95.7
2018-06-11T08:01:30.602Z,92.1
2018-06-11T08:01:50.858Z,90.8
2018-06-11T08:02:11.037Z,91.3
2018-06-11T08:02:31.293Z,90.5
2018-06-11T08:02:51.499Z,90.3
2018-06-11T08:03:11.765Z,90.5
2018-06-11T08:03:32.104Z,90.4
2018-06-11T08:03:52.340Z,91.8
2018-06-11T08:04:16.320Z,91.7
2018-06-11T08:04:36.753Z,92.8
2018-06-11T08:04:57.079Z,93.8
2018-06-11T08:05:17.538Z,94.3
2018-06-11T08:05:37.856Z,93.9
2018-06-11T08:05:58.243Z,93.3
2018-06-11T08:06:18.655Z,93.6
2018-06-11T08:06:39.936Z,94.3
2018-06-11T08:07:00.227Z,95.2
2018-06-11T08:07:21.598Z,94.8
2018-06-11T08:07:41.878Z,94.7
2018-06-11T08:08:02.105Z,93.8
2018-06-11T08:08:22.881Z,93.7
2018-06-11T08:08:44.817Z,93.7
2018-06-11T08:09:05.950Z,93.8
2018-06-11T08:09:26.273Z,93.2
2018-06-11T08:09:46.555Z,93.6
2018-06-11T08:10:06.934Z,92.6
2018-06-11T08:10:28.441Z,94.8
2018-06-11T08:10:48.856Z,95.2
2018-06-11T08:11:09.368Z,95.2
2018-06-11T08:11:31.748Z,95.7
2018-06-11T08:11:51.950Z,93.3
2018-06-11T08:12:12.322Z,91.6
2018-06-11T08:12:32.634Z,91.3
2018-06-11T08:12:53.092Z,91.3
2018-06-11T08:13:14.486Z,92.2
2018-06-11T08:13:34.944Z,91.4
2018-06-11T08:13:55.330Z,90.4
2018-06-11T08:14:15.592Z,90.8
2018-06-11T08:14:36.805Z,90.5
2018-06-11T08:14:57.206Z,90.5
2018-06-11T08:15:17.591Z,89.9
2018-06-11T08:15:37.985Z,89.2
2018-06-11T08:15:58.288Z,89.1
2018-06-11T08:16:19.388Z,88.8
2018-06-11T08:16:39.793Z,89.1
2018-06-11T08:17:00.847Z,89.7
2018-06-11T08:17:21.148Z,90.4
2018-06-11T08:17:42.401Z,90.6
2018-06-11T08:18:03.439Z,90.7
2018-06-11T08:18:25.552Z,89.5
2018-06-11T08:18:45.764Z,88.4
2018-06-11T08:19:06.093Z,87.9
2018-06-11T08:19:26.374Z,87.4
2018-06-11T08:19:46.632Z,87.8
2018-06-11T08:20:06.854Z,87.1
2018-06-11T08:20:27.047Z,87.5
2018-06-11T08:20:47.308Z,88
2018-06-11T08:21:07.733Z,89
2018-06-11T08:21:28.051Z,88.7
2018-06-11T08:21:48.309Z,89.8
2018-06-11T08:22:08.657Z,90.6
2018-06-11T08:22:28.938Z,90.5
2018-06-11T08:22:49.215Z,90
2018-06-11T08:23:09.488Z,89.8
2018-06-11T08:23:29.803Z,90.4
2018-06-11T08:23:50.257Z,90.8
2018-06-11T08:24:10.684Z,90.6
2018-06-11T08:24:30.954Z,89.1
2018-06-11T08:24:51.289Z,88.4
2018-06-11T08:25:12.099Z,89.4
2018-06-11T08:25:33.196Z,89.7
2018-06-11T08:25:53.414Z,90.3
2018-06-11T08:26:13.696Z,90.5
2018-06-11T08:26:34.093Z,90.7
2018-06-11T08:26:54.265Z,90.4
2018-06-11T08:27:14.492Z,90.8
2018-06-11T08:27:34.837Z,88.9
2018-06-11T08:27:55.177Z,88.3
2018-06-11T08:28:15.604Z,89.8
2018-06-11T08:28:35.864Z,90.6
2018-06-11T08:28:56.145Z,90.5
2018-06-11T08:29:17.213Z,90.4
2018-06-11T08:29:39.268Z,89.8
2018-06-11T08:29:59.587Z,89.4
2018-06-11T08:30:19.878Z,89.6
2018-06-11T08:30:40.159Z,88.7
2018-06-11T08:31:00.446Z,89.8
2018-06-11T08:31:20.778Z,89
2018-06-11T08:31:41.027Z,90.4
2018-06-11T08:32:01.226Z,90.3
2018-06-11T08:32:21.519Z,90.1
2018-06-11T08:32:41.756Z,90.4
2018-06-11T08:33:02.022Z,90.5
2018-06-11T08:33:22.245Z,89.6
2018-06-11T08:33:42.517Z,90.2
2018-06-11T08:34:02.833Z,89.8
2018-06-11T08:34:23.096Z,88.2
2018-06-11T08:34:43.376Z,87.9
2018-06-11T08:35:03.582Z,87.9
2018-06-11T08:35:23.854Z,88.2
2018-06-11T08:35:44.091Z,87.3
2018-06-11T08:36:04.348Z,87.7
2018-06-11T08:36:24.659Z,88.3
2018-06-11T08:36:44.841Z,87.1
2018-06-11T08:37:05.102Z,86.9
2018-06-11T08:37:25.429Z,86.9
2018-06-11T08:37:46.299Z,86.6
2018-06-11T08:38:06.545Z,87
2018-06-11T08:38:26.727Z,87.9
2018-06-11T08:38:46.887Z,88.6
2018-06-11T08:39:07.120Z,88.9
2018-06-11T08:39:27.431Z,89
2018-06-11T08:39:47.764Z,89.9
2018-06-11T08:40:08.125Z,88.7
2018-06-11T08:40:28.485Z,86.7
2018-06-11T08:40:50.185Z,85.4
2018-06-11T08:41:10.486Z,86.1
2018-06-11T08:41:30.698Z,87.1
2018-06-11T08:41:50.977Z,89.5
2018-06-11T08:42:11.350Z,88.1
2018-06-11T08:42:31.498Z,86.6
2018-06-11T08:42:51.683Z,85.9
2018-06-11T08:43:11.988Z,86
2018-06-11T08:43:32.300Z,85.9
2018-06-11T08:43:52.551Z,86
2018-06-11T08:44:12.821Z,87.1
2018-06-11T08:44:33.047Z,88.4
2018-06-11T08:44:53.246Z,88
2018-06-11T08:45:13.502Z,87.5
2018-06-11T08:45:33.700Z,87
2018-06-11T08:45:53.859Z,86.9
2018-06-11T08:46:14.875Z,86.3
2018-06-11T08:46:35.076Z,86.4
2018-06-11T08:46:55.303Z,87
2018-06-11T08:47:15.487Z,87.9
2018-06-11T08:47:35.703Z,86.2
2018-06-11T08:47:55.712Z,85.6
2018-06-11T08:48:16.006Z,86.6
2018-06-11T08:48:36.410Z,87.7
2018-06-11T08:48:56.726Z,88.4
2018-06-11T08:49:19.717Z,88.9
2018-06-11T08:49:40.708Z,88.6
2018-06-11T08:50:01.192Z,88.6
2018-06-11T08:50:22.062Z,88.5
2018-06-11T08:50:43.162Z,88.3
2018-06-11T08:51:04.194Z,88.1
2018-06-11T08:51:24.474Z,89.3
2018-06-11T08:51:44.680Z,89.3
2018-06-11T08:52:04.936Z,89.2
2018-06-11T08:52:30.313Z,88.3
2018-06-11T08:52:50.497Z,88.8
2018-06-11T08:53:11.054Z,88.3
2018-06-11T08:53:31.339Z,88.6
2018-06-11T08:53:51.773Z,88.3
2018-06-11T08:54:12.081Z,85.8
2018-06-11T08:54:32.384Z,88
2018-06-11T08:54:52.652Z,88.4
2018-06-11T08:55:13.100Z,87.7
2018-06-11T08:55:33.331Z,88
2018-06-11T08:55:53.735Z,87.9
2018-06-11T08:56:13.953Z,87.1
2018-06-11T08:56:34.071Z,88
2018-06-11T08:56:55.162Z,88.2
2018-06-11T08:57:15.441Z,88.7
2018-06-11T08:57:35.753Z,88.3
2018-06-11T08:57:56.065Z,85.2
2018-06-11T08:58:17.884Z,85
2018-06-11T08:58:38.220Z,86
2018-06-11T08:58:58.487Z,86.9
2018-06-11T08:59:18.758Z,86.1
2018-06-11T08:59:38.988Z,85.5
2018-06-11T08:59:59.383Z,85.5
2018-06-11T09:00:19.509Z,85.7
2018-06-11T09:00:39.794Z,85.7
2018-06-11T09:01:00.789Z,85
2018-06-11T09:01:21.270Z,85.8
2018-06-11T09:01:41.475Z,84.3
2018-06-11T09:02:01.745Z,83
2018-06-11T09:02:22.779Z,83.2
2018-06-11T09:02:44.747Z,83.8
2018-06-11T09:03:04.948Z,84.3
2018-06-11T09:03:25.168Z,84.7
2018-06-11T09:03:45.897Z,85.4
2018-06-11T09:04:06.109Z,87.1
2018-06-11T09:04:26.377Z,88.6
2018-06-11T09:04:46.720Z,88
2018-06-11T09:05:07.249Z,86.5
2018-06-11T09:05:27.445Z,86.5
2018-06-11T09:05:48.903Z,86.6
2018-06-11T09:06:10.612Z,88.3
2018-06-11T09:06:30.788Z,88.3
2018-06-11T09:06:51.169Z,88.4
2018-06-11T09:07:11.349Z,87.7
2018-06-11T09:07:31.586Z,87.7
2018-06-11T09:07:51.886Z,88.1
2018-06-11T09:08:12.218Z,87.5
2018-06-11T09:08:32.585Z,87.6
2018-06-11T09:08:52.814Z,87.8
2018-06-11T09:09:13.199Z,87.8
2018-06-11T09:09:33.657Z,86.1
2018-06-11T09:09:54.136Z,85.8
2018-06-11T09:10:14.618Z,85.4
2018-06-11T09:10:35.539Z,85.4
2018-06-11T09:10:56.319Z,86.3
2018-06-11T09:11:16.527Z,87.7
2018-06-11T09:11:36.748Z,87.7
2018-06-11T09:11:57.026Z,87
2018-06-11T09:12:17.337Z,85.8
2018-06-11T09:12:37.715Z,86.3
2018-06-11T09:12:59.037Z,86.8
2018-06-11T09:13:19.279Z,87.7
2018-06-11T09:13:39.551Z,87.9
2018-06-11T09:13:59.817Z,87.1
2018-06-11T09:14:20.063Z,88.6
2018-06-11T09:14:43.394Z,87.9
2018-06-11T09:15:03.731Z,88
2018-06-11T09:15:24.003Z,88.3
2018-06-11T09:15:44.330Z,88.2
2018-06-11T09:16:04.581Z,86.9
2018-06-11T09:16:25.520Z,88
2018-06-11T09:16:46.747Z,87.8
2018-06-11T09:17:07.144Z,87.6
2018-06-11T09:17:27.362Z,87.6
2018-06-11T09:17:48.453Z,87.6
2018-06-11T09:18:08.731Z,87.4
2018-06-11T09:18:29.236Z,86.8
2018-06-11T09:18:49.926Z,86.9
2018-06-11T09:19:10.198Z,87
2018-06-11T09:19:30.486Z,87.8
2018-06-11T09:19:50.751Z,87.9
2018-06-11T09:20:11.819Z,87.5
2018-06-11T09:20:32.093Z,87.9
2018-06-11T09:20:53.839Z,86.2
2018-06-11T09:21:14.056Z,86.1
2018-06-11T09:21:34.480Z,85.7
2018-06-11T09:21:55.210Z,84.8
2018-06-11T09:22:15.476Z,84.9
2018-06-11T09:22:35.636Z,85.4
2018-06-11T09:22:56.001Z,85.5
2018-06-11T09:23:17.020Z,86.1
2018-06-11T09:23:37.234Z,85.9
2018-06-11T09:23:57.422Z,85.2
2018-06-11T09:24:17.592Z,84.7
2018-06-11T09:24:37.805Z,85.5
2018-06-11T09:24:58.045Z,86.6
2018-06-11T09:25:18.288Z,86.2
2018-06-11T09:25:38.497Z,85.6
2018-06-11T09:25:58.741Z,86.9
2018-06-11T09:26:20.149Z,87.3
2018-06-11T09:26:41.287Z,87.8
2018-06-11T09:27:01.567Z,87.9
2018-06-11T09:27:21.762Z,88.3
2018-06-11T09:27:42.187Z,88.3
2018-06-11T09:28:03.361Z,88
2018-06-11T09:28:24.204Z,86.9
2018-06-11T09:28:44.437Z,86.7
2018-06-11T09:29:05.152Z,86.3
2018-06-11T09:29:25.392Z,86.7
2018-06-11T09:29:45.591Z,85.5
2018-06-11T09:30:06.422Z,85.7
2018-06-11T09:30:26.753Z,86.2
2018-06-11T09:30:47.060Z,86
2018-06-11T09:31:07.936Z,84.8
2018-06-11T09:31:28.126Z,84.9
2018-06-11T09:31:49.231Z,85.4
2018-06-11T09:32:09.626Z,84.7
2018-06-11T09:32:29.907Z,84.8
2018-06-11T09:32:50.136Z,84.6
2018-06-11T09:33:10.322Z,84.2
2018-06-11T09:33:30.525Z,84.7
2018-06-11T09:33:50.793Z,84.5
2018-06-11T09:34:10.980Z,85.8
2018-06-11T09:34:31.229Z,86
2018-06-11T09:34:52.872Z,86
2018-06-11T09:35:13.086Z,85.8
2018-06-11T09:35:33.268Z,85.3
2018-06-11T09:35:53.546Z,85.9
2018-06-11T09:36:13.739Z,87.4
2018-06-11T09:36:34.189Z,86.9
2018-06-11T09:36:54.372Z,86.7
2018-06-11T09:37:14.614Z,87.2
2018-06-11T09:37:34.884Z,87
2018-06-11T09:37:55.374Z,86.5
2018-06-11T09:38:16.594Z,86.8
2018-06-11T09:38:37.023Z,86.6
2018-06-11T09:38:58.829Z,86.6
2018-06-11T09:39:19.172Z,86.7
2018-06-11T09:39:39.614Z,85.4
2018-06-11T09:40:00.552Z,84.8
2018-06-11T09:40:20.907Z,84.7
2018-06-11T09:40:41.510Z,83.9
2018-06-11T09:41:02.539Z,83.8
2018-06-11T09:41:25.200Z,83.9
2018-06-11T09:41:45.320Z,85.1
2018-06-11T09:42:06.114Z,85.8
2018-06-11T09:42:26.286Z,85.8
2018-06-11T09:42:46.451Z,85.8
2018-06-11T09:43:06.634Z,85.7
2018-06-11T09:43:26.764Z,85.7
2018-06-11T09:43:46.947Z,86.1
2018-06-11T09:44:07.157Z,87.2
2018-06-11T09:44:28.139Z,86.7
2018-06-11T09:44:48.291Z,86.7
2018-06-11T09:45:08.528Z,86
2018-06-11T09:45:28.721Z,85.8
2018-06-11T09:45:48.927Z,84.3
2018-06-11T09:46:09.118Z,84.5
2018-06-11T09:46:29.292Z,85.6
2018-06-11T09:46:50.118Z,84.9
2018-06-11T09:47:10.267Z,85
2018-06-11T09:47:30.447Z,85.5
2018-06-11T09:47:51.139Z,85.6
2018-06-11T09:48:11.863Z,85.4
2018-06-11T09:48:32.207Z,85.5
2018-06-11T09:48:52.369Z,85.5
2018-06-11T09:49:12.592Z,84.8
2018-06-11T09:49:34.148Z,84.9
2018-06-11T09:49:55.072Z,85.5
2018-06-11T09:50:15.245Z,86.1
2018-06-11T09:50:35.426Z,85.9
2018-06-11T09:50:55.567Z,86.6
2018-06-11T09:51:15.727Z,86
2018-06-11T09:51:35.928Z,85
2018-06-11T09:51:56.073Z,83.9
2018-06-11T09:52:16.219Z,83.4
2018-06-11T09:52:37.660Z,82.8
2018-06-11T09:52:57.789Z,83.7
2018-06-11T09:53:17.965Z,84.1
2018-06-11T09:53:38.138Z,83.4
2018-06-11T09:53:58.268Z,83.7
2018-06-11T09:54:18.476Z,84.4
2018-06-11T09:54:38.695Z,84.7
2018-06-11T09:54:58.882Z,83
2018-06-11T09:55:19.085Z,82.8
2018-06-11T09:55:39.323Z,83.5
2018-06-11T09:55:59.460Z,82.7
2018-06-11T09:56:19.648Z,83.9
2018-06-11T09:56:39.818Z,84.5
2018-06-11T09:57:00.000Z,84.2
2018-06-11T09:57:20.169Z,84.4
2018-06-11T09:57:40.394Z,85.3
2018-06-11T09:58:00.571Z,85.1
2018-06-11T09:58:20.734Z,83.3
2018-06-11T09:58:40.905Z,82.6
2018-06-11T09:59:01.111Z,83
2018-06-11T09:59:21.292Z,83.5
2018-06-11T09:59:41.442Z,83.4
2018-06-11T10:00:01.613Z,83.5
2018-06-11T10:00:21.890Z,83.5
2018-06-11T10:00:42.080Z,84.7
2018-06-11T10:01:02.281Z,83.5
2018-06-11T10:01:22.557Z,81.9
2018-06-11T10:01:43.648Z,81.4
2018-06-11T10:02:03.882Z,81.1
2018-06-11T10:02:24.272Z,81.2
2018-06-11T10:02:44.658Z,81.1
2018-06-11T10:03:04.954Z,81.8
2018-06-11T10:03:25.172Z,82.2
2018-06-11T10:03:45.418Z,82.3
2018-06-11T10:04:05.761Z,81.8
2018-06-11T10:04:26.007Z,81.3
2018-06-11T10:04:46.212Z,80.6
2018-06-11T10:05:06.542Z,80.8
2018-06-11T10:05:26.742Z,82.3
2018-06-11T10:05:47.035Z,82.7
2018-06-11T10:06:07.376Z,83.5
2018-06-11T10:06:27.626Z,84.1
2018-06-11T10:06:47.747Z,84.1
2018-06-11T10:07:07.878Z,85.1
2018-06-11T10:07:28.042Z,84.6
2018-06-11T10:07:48.044Z,84.1
2018-06-11T10:08:08.213Z,83.8
2018-06-11T10:08:29.776Z,83.1
2018-06-11T10:08:49.958Z,83.6
2018-06-11T10:09:10.742Z,83.2
2018-06-11T10:09:30.872Z,83.1
2018-06-11T10:09:51.045Z,81.6
2018-06-11T10:10:11.312Z,80.4
2018-06-11T10:10:31.298Z,80.5
2018-06-11T10:10:51.468Z,81.5
2018-06-11T10:11:12.890Z,83.3
2018-06-11T10:11:33.577Z,84.3
2018-06-11T10:11:54.743Z,82.3
2018-06-11T10:12:15.891Z,82
2018-06-11T10:12:36.179Z,82.2
2018-06-11T10:12:56.269Z,83.2
2018-06-11T10:13:16.521Z,83.3
2018-06-11T10:13:36.658Z,82
2018-06-11T10:13:57.042Z,81.8
2018-06-11T10:14:17.047Z,82
2018-06-11T10:14:37.356Z,82.5
2018-06-11T10:14:57.553Z,83.5
2018-06-11T10:15:17.699Z,82
2018-06-11T10:15:37.943Z,81.7
2018-06-11T10:15:58.238Z,81.8
2018-06-11T10:16:18.447Z,82.2
2018-06-11T10:16:38.627Z,82.8
2018-06-11T10:16:58.637Z,83.4
2018-06-11T10:17:18.933Z,83.1
2018-06-11T10:17:39.117Z,81
2018-06-11T10:17:59.358Z,81.3
2018-06-11T10:18:19.518Z,81.1
2018-06-11T10:18:39.714Z,82.1
2018-06-11T10:18:59.911Z,82.4
2018-06-11T10:19:20.182Z,83.1
2018-06-11T10:19:40.099Z,83.8
2018-06-11T10:20:00.246Z,83
2018-06-11T10:20:20.503Z,82.2
2018-06-11T10:20:40.669Z,81.5
2018-06-11T10:21:01.808Z,81.9
2018-06-11T10:21:21.951Z,81.8
2018-06-11T10:21:42.161Z,82.3
2018-06-11T10:22:02.364Z,83.2
2018-06-11T10:22:22.563Z,82.9
2018-06-11T10:22:44.260Z,83
2018-06-11T10:23:04.513Z,83.8
2018-06-11T10:23:26.213Z,83.3
2018-06-11T10:23:46.392Z,83.5
2018-06-11T10:24:06.589Z,83.5
2018-06-11T10:24:26.847Z,83.6
2018-06-11T10:24:47.654Z,82.9
2018-06-11T10:25:07.890Z,83.2
2018-06-11T10:25:28.161Z,83.6
2018-06-11T10:25:48.334Z,83.8
2018-06-11T10:26:15.059Z,83.4
2018-06-11T10:26:35.230Z,83.4
2018-06-11T10:26:55.394Z,83
2018-06-11T10:27:16.530Z,82
2018-06-11T10:27:36.699Z,82
2018-06-11T10:27:57.508Z,81.8
2018-06-11T10:28:17.697Z,82.1
2018-06-11T10:28:37.890Z,82.2
2018-06-11T10:28:58.134Z,82.4
2018-06-11T10:29:18.400Z,82.3
2018-06-11T10:29:38.574Z,82.2
2018-06-11T10:29:58.629Z,82
2018-06-11T10:30:18.779Z,82.1
2018-06-11T10:30:39.534Z,83.2
2018-06-11T10:30:59.709Z,82.6
2018-06-11T10:31:19.867Z,82.9
2018-06-11T10:31:40.035Z,82.8
2018-06-11T10:32:01.072Z,83.1
2018-06-11T10:32:21.278Z,82.5
2018-06-11T10:32:41.525Z,83.6
2018-06-11T10:33:01.664Z,83.6
2018-06-11T10:33:21.833Z,83.4
2018-06-11T10:33:42.002Z,82.5
2018-06-11T10:34:02.232Z,83.9
2018-06-11T10:34:22.486Z,83.5
2018-06-11T10:34:44.090Z,84.4
2018-06-11T10:35:04.351Z,84
2018-06-11T10:35:24.514Z,83.9
2018-06-11T10:35:46.145Z,84
2018-06-11T10:36:06.369Z,84
2018-06-11T10:36:26.625Z,83.9
2018-06-11T10:36:46.785Z,83.6
2018-06-11T10:37:07.025Z,84.3
2018-06-11T10:37:27.215Z,85.2
2018-06-11T10:37:48.083Z,84.9
2018-06-11T10:38:08.248Z,84.4
2018-06-11T10:38:28.470Z,84.6
2018-06-11T10:38:48.621Z,84.6
2018-06-11T10:39:08.870Z,86.2
2018-06-11T10:39:29.013Z,83.3
2018-06-11T10:39:49.168Z,83.5
2018-06-11T10:40:09.955Z,84.1
2018-06-11T10:40:30.919Z,84.2
2018-06-11T10:40:51.088Z,82.1
2018-06-11T10:41:11.244Z,81.5
2018-06-11T10:41:31.377Z,81.8
2018-06-11T10:41:51.535Z,82
2018-06-11T10:42:11.786Z,82.7
2018-06-11T10:42:33.465Z,84.2
2018-06-11T10:42:53.637Z,84.4
2018-06-11T10:43:15.636Z,84.5
2018-06-11T10:43:35.812Z,84.5
2018-06-11T10:43:55.998Z,84.6
2018-06-11T10:44:16.136Z,83.5
2018-06-11T10:44:36.354Z,83.3
2018-06-11T10:44:59.691Z,85
2018-06-11T10:45:19.629Z,82.8
2018-06-11T10:45:39.870Z,82.9
2018-06-11T10:46:00.092Z,83.5
2018-06-11T10:46:20.294Z,83.1
2018-06-11T10:46:40.469Z,83.5
2018-06-11T10:47:00.706Z,83.8
2018-06-11T10:47:20.902Z,84
2018-06-11T10:47:41.114Z,83.7
2018-06-11T10:48:01.309Z,83.6
2018-06-11T10:48:21.473Z,83.9
2018-06-11T10:48:41.662Z,83.8
2018-06-11T10:49:01.851Z,83.9
2018-06-11T10:49:22.059Z,84
2018-06-11T10:49:42.222Z,84.3
2018-06-11T10:50:02.493Z,83.6
2018-06-11T10:50:22.668Z,82.3
2018-06-11T10:50:42.901Z,82.3
2018-06-11T10:51:03.072Z,82.8
2018-06-11T10:51:23.310Z,82.5
2018-06-11T10:51:43.477Z,82.4
2018-06-11T10:52:03.694Z,82.6
2018-06-11T10:52:23.871Z,82.7
2018-06-11T10:52:44.061Z,82
2018-06-11T10:53:04.261Z,82.4
2018-06-11T10:53:24.485Z,81.5
2018-06-11T10:53:44.682Z,80.6
2018-06-11T10:54:04.962Z,80.9
2018-06-11T10:54:26.680Z,81.6
2018-06-11T10:54:46.701Z,81.8
2018-06-11T10:55:06.871Z,81.8
2018-06-11T10:55:26.915Z,82.3
2018-06-11T10:55:47.137Z,82.1
2018-06-11T10:56:07.134Z,82.5
2018-06-11T10:56:27.134Z,82.9
2018-06-11T10:56:47.125Z,82.3
2018-06-11T10:57:07.168Z,83
2018-06-11T10:57:27.423Z,82
2018-06-11T10:57:47.663Z,81.7
2018-06-11T10:58:08.860Z,81.5
2018-06-11T10:58:29.082Z,80.7
2018-06-11T10:58:49.292Z,80.9
2018-06-11T10:59:09.463Z,81
2018-06-11T10:59:29.686Z,81.5
2018-06-11T10:59:49.855Z,81.2
2018-06-11T11:00:10.083Z,80.6
2018-06-11T11:00:30.311Z,81.2
2018-06-11T11:00:50.535Z,81.9
2018-06-11T11:01:12.190Z,81.5
2018-06-11T11:01:32.386Z,81.8
2018-06-11T11:01:52.644Z,79.8
2018-06-11T11:02:13.781Z,79.7
2018-06-11T11:02:33.961Z,80.7
2018-06-11T11:02:54.141Z,80.7
2018-06-11T11:03:14.409Z,80.2
2018-06-11T11:03:34.595Z,78.4
2018-06-11T11:03:55.714Z,78.9
2018-06-11T11:04:15.893Z,79.8
2018-06-11T11:04:36.069Z,80.7
2018-06-11T11:04:56.210Z,81.8
2018-06-11T11:05:17.024Z,82
2018-06-11T11:05:38.638Z,80.1
2018-06-11T11:05:58.816Z,77.6
2018-06-11T11:06:18.952Z,78.2
2018-06-11T11:06:39.163Z,78.9
2018-06-11T11:06:59.303Z,79.5
2018-06-11T11:07:20.378Z,79.8
2018-06-11T11:07:41.540Z,79.4
2018-06-11T11:08:01.737Z,79.9
2018-06-11T11:08:21.981Z,81.2
2018-06-11T11:08:42.167Z,81
2018-06-11T11:09:02.307Z,80.5
2018-06-11T11:09:23.120Z,79.3
2018-06-11T11:09:43.334Z,78.9
2018-06-11T11:10:04.866Z,79.6
2018-06-11T11:10:25.082Z,78.2
2018-06-11T11:10:45.261Z,79.7
2018-06-11T11:11:05.490Z,79.2
2018-06-11T11:11:25.676Z,78.8
2018-06-11T11:11:45.846Z,79.7
2018-06-11T11:12:06.047Z,79.5
2018-06-11T11:12:26.374Z,78.7
2018-06-11T11:12:46.620Z,78.9
2018-06-11T11:13:06.838Z,80.4
2018-06-11T11:13:28.200Z,81.1
2018-06-11T11:13:48.434Z,81.8
2018-06-11T11:14:08.673Z,82.4
2018-06-11T11:14:28.858Z,81.8
2018-06-11T11:14:49.028Z,81.2
2018-06-11T11:15:10.738Z,81.2
2018-06-11T11:15:30.931Z,81.9
2018-06-11T11:15:51.077Z,80.9
2018-06-11T11:16:14.749Z,81
2018-06-11T11:16:35.063Z,81.5
2018-06-11T11:16:55.875Z,82.3
2018-06-11T11:17:16.074Z,82.3
2018-06-11T11:17:36.293Z,81.5
2018-06-11T11:17:57.233Z,82.3
2018-06-11T11:18:18.130Z,81.2
2018-06-11T11:18:38.293Z,80.8
2018-06-11T11:18:58.501Z,81.2
2018-06-11T11:19:18.734Z,79.7
2018-06-11T11:19:38.919Z,79.3
2018-06-11T11:19:59.162Z,79.6
2018-06-11T11:20:19.162Z,79.8
2018-06-11T11:20:39.333Z,79.4
2018-06-11T11:21:00.670Z,79.2